Portada
METAR-TAF:

METAR-TAF

Aeroports :

Puerto Francisco de Orellana, Equador

latitud: 00-27-46S, longitud: 076-59-12W, altitud: 254 m

Observació

L'informe es va fer fa 13 minuts, a les 19:00 UTC
Vent 2 kt del Oest/Nord-Oest
Temperatura 25°C
Humitat 94%
Pressió 1009 hPa
Visibilitat 10 km o més
Núvols disperses a una alçada de 2300 ft
Cel ennuvolat a una alçada de 10000 ft

METAR: SECO 181900Z 30002KT 9999 SCT023 BKN100 25/24 Q1009 RMK A2980

Hora: 14:13 (19:13 UTC)


TAF: manca

Observacions i pronòstics meteorològics de més de 4000 aeroports (METAR i TAF).

Les estacions disponibles són els punts grocs i vermells al mapa.

Posi el ratolí al punt desitjat per veure el nom de l'estació.

Feu clic per veure les observacions i els pronòstics meteorològics.

Per canviar el mapa: feu clic els botons verds amb una creu de color negre per apropar; al botó verd amb un guió per allunyar la imatge; o en les fletxes verdes per a mapes adjacents.


METAR-TAF: